Time;durP1;ratioP1;P1;durP2;ratioP2;P2;SDS_P1;SDS_P2;PMS_P1;PMS_P2;Temp;Humidity;BMP_temperature;BMP_pressure;BME280_temperature;BME280_humidity;BME280_pressure;Samples;Min_cycle;Max_cycle;Signal;HPM_P1;HPM_P2
2023/07/30 00:00:24;;;;;;;2.37;1.93;;;;;;;18.71;100.00;156171.00;5008910;28;20456;-80
2023/07/30 00:03:09;;;;;;;3.90;2.30;;;;;;;18.66;100.00;156158.00;4995718;28;20816;-79
2023/07/30 00:05:55;;;;;;;2.60;1.87;;;;;;;18.61;100.00;156146.22;4993426;28;20859;-79
2023/07/30 00:08:42;;;;;;;1.87;1.50;;;;;;;18.52;100.00;156122.81;5007223;28;20476;-79
2023/07/30 00:11:27;;;;;;;2.20;2.00;;;;;;;18.54;100.00;156128.00;5012200;28;20446;-79
2023/07/30 00:14:15;;;;;;;3.23;2.60;;;;;;;18.54;100.00;156128.00;5022734;28;20435;-79
2023/07/30 00:17:01;;;;;;;4.43;3.10;;;;;;;18.53;100.00;156125.38;5009157;28;20460;-80
2023/07/30 00:19:46;;;;;;;4.50;3.00;;;;;;;18.50;100.00;156117.59;5005074;28;21051;-79
2023/07/30 00:22:31;;;;;;;3.00;2.43;;;;;;;18.47;100.00;156108.44;5008611;28;20916;-79
2023/07/30 00:25:18;;;;;;;4.33;3.40;;;;;;;18.51;100.00;156118.88;5008122;28;20861;-80
2023/07/30 00:28:03;;;;;;;3.90;3.33;;;;;;;18.51;100.00;156118.88;4993417;28;20460;-79
2023/07/30 00:30:49;;;;;;;4.03;3.63;;;;;;;18.52;100.00;156121.50;5021438;28;20526;-79
2023/07/30 00:33:34;;;;;;;3.10;2.80;;;;;;;18.51;100.00;156118.88;5007676;28;20440;-79
2023/07/30 00:36:22;;;;;;;4.00;3.13;;;;;;;18.53;100.00;156125.38;5019849;28;20780;-80
2023/07/30 00:39:07;;;;;;;4.13;3.30;;;;;;;18.49;100.00;156113.66;5004882;28;20515;-80
2023/07/30 00:41:54;;;;;;;4.23;3.80;;;;;;;18.48;100.00;156111.09;5020766;28;20448;-80
2023/07/30 00:44:39;;;;;;;6.93;3.40;;;;;;;18.46;100.00;156105.81;5016247;28;20506;-79
2023/07/30 00:47:25;;;;;;;3.77;3.40;;;;;;;18.50;100.00;156116.31;5013382;28;21034;-79
2023/07/30 00:50:12;;;;;;;3.83;3.37;;;;;;;18.45;100.00;156103.22;5020577;28;20483;-79
2023/07/30 00:52:57;;;;;;;3.87;3.57;;;;;;;18.45;100.00;156104.53;5011032;28;20922;-79
2023/07/30 00:55:42;;;;;;;5.70;4.40;;;;;;;18.47;100.00;156108.44;5006386;28;21029;-79
2023/07/30 00:58:29;;;;;;;6.87;4.57;;;;;;;18.48;100.00;156111.09;5020134;28;21151;-79
2023/07/30 01:01:17;;;;;;;6.10;4.90;;;;;;;18.47;100.00;156108.44;5006901;28;20610;-78
2023/07/30 01:04:03;;;;;;;4.83;4.33;;;;;;;18.46;100.00;156105.81;4987107;28;20496;-78
2023/07/30 01:06:48;;;;;;;5.37;4.87;;;;;;;18.45;100.00;156103.22;5006614;28;20472;-78
2023/07/30 01:09:34;;;;;;;5.07;4.57;;;;;;;18.45;100.00;156103.22;5003702;28;20467;-79
2023/07/30 01:12:19;;;;;;;5.47;4.97;;;;;;;18.48;100.00;156111.09;5003840;28;20468;-79
2023/07/30 01:15:07;;;;;;;5.90;4.73;;;;;;;18.49;100.00;156114.97;5005526;28;20444;-79
2023/07/30 01:17:53;;;;;;;6.43;4.30;;;;;;;18.50;100.00;156117.59;5005831;28;20499;-79
2023/07/30 01:20:38;;;;;;;5.63;4.97;;;;;;;18.51;100.00;156118.88;5004111;28;20439;-79
2023/07/30 01:23:25;;;;;;;5.13;4.67;;;;;;;18.47;100.00;156109.78;5006131;28;20436;-79
2023/07/30 01:26:13;;;;;;;5.07;4.57;;;;;;;18.48;100.00;156111.09;5017717;28;20978;-79
2023/07/30 01:29:01;;;;;;;5.43;4.93;;;;;;;18.46;100.00;156107.09;5015712;28;20864;-79
2023/07/30 01:31:48;;;;;;;5.37;4.60;;;;;;;18.48;100.00;156111.09;5027126;28;20408;-79
2023/07/30 01:34:35;;;;;;;6.87;5.07;;;;;;;18.44;100.00;156100.59;5019247;28;21061;-79
2023/07/30 01:37:21;;;;;;;6.17;5.57;;;;;;;18.46;100.00;156105.81;5006751;28;20522;-79
2023/07/30 01:40:09;;;;;;;5.00;4.50;;;;;;;18.42;100.00;156096.72;5020184;28;20432;-79
2023/07/30 01:42:54;;;;;;;5.87;5.27;;;;;;;18.42;100.00;156095.41;5007945;28;20972;-79
2023/07/30 01:45:40;;;;;;;5.40;4.90;;;;;;;18.41;100.00;156092.78;5015985;28;20822;-79
2023/07/30 01:48:25;;;;;;;5.03;4.60;;;;;;;18.42;100.00;156095.41;5018946;28;20451;-79
2023/07/30 01:51:11;;;;;;;6.07;4.80;;;;;;;18.38;100.00;156086.28;5015288;28;20530;-78
2023/07/30 01:53:56;;;;;;;5.80;5.30;;;;;;;18.37;100.00;156082.38;5023391;28;20595;-78
2023/07/30 01:56:42;;;;;;;5.60;5.10;;;;;;;18.36;100.00;156081.06;5023113;28;20446;-78
2023/07/30 01:59:28;;;;;;;9.30;5.03;;;;;;;18.36;100.00;156079.75;5030310;28;20509;-78
2023/07/30 02:02:12;;;;;;;6.00;5.40;;;;;;;18.34;100.00;156074.56;5032074;28;20451;-78
2023/07/30 02:04:58;;;;;;;5.43;4.93;;;;;;;18.29;100.00;156061.53;5025940;28;20512;-78
2023/07/30 02:07:43;;;;;;;4.77;4.10;;;;;;;18.24;100.00;156051.09;5036785;28;20446;-78
2023/07/30 02:10:28;;;;;;;5.73;5.00;;;;;;;18.23;100.00;156047.22;5032329;28;21076;-79
2023/07/30 02:13:15;;;;;;;5.67;5.17;;;;;;;18.24;100.00;156051.09;5014614;28;20462;-78
2023/07/30 02:16:00;;;;;;;5.13;4.73;;;;;;;18.24;100.00;156049.84;5015657;28;20438;-79
2023/07/30 02:18:46;;;;;;;6.73;4.37;;;;;;;18.23;100.00;156048.53;5025946;28;20462;-79
2023/07/30 02:21:32;;;;;;;5.20;4.70;;;;;;;18.23;100.00;156048.53;5030484;28;20514;-79
2023/07/30 02:24:17;;;;;;;4.83;4.43;;;;;;;18.20;100.00;156040.69;5032806;28;20455;-79
2023/07/30 02:27:02;;;;;;;4.90;4.50;;;;;;;18.18;100.00;156035.50;5029482;28;20467;-79
2023/07/30 02:29:49;;;;;;;4.30;3.90;;;;;;;18.20;100.00;156040.69;5026983;28;20525;-79
2023/07/30 02:32:34;;;;;;;4.87;4.43;;;;;;;18.19;100.00;156038.09;5029595;28;20458;-79
2023/07/30 02:35:19;;;;;;;5.20;4.70;;;;;;;18.15;100.00;156027.69;5030099;28;20419;-79
2023/07/30 02:38:05;;;;;;;4.73;4.20;;;;;;;18.14;100.00;156025.06;5027081;28;20807;-79
2023/07/30 02:40:50;;;;;;;4.43;4.03;;;;;;;18.13;100.00;156022.50;5029507;28;20499;-79
2023/07/30 02:43:35;;;;;;;5.10;4.60;;;;;;;18.13;100.00;156021.19;5030556;28;20593;-80
2023/07/30 02:46:22;;;;;;;4.70;4.30;;;;;;;18.11;100.00;156017.25;5024889;28;20964;-79
2023/07/30 02:49:08;;;;;;;4.17;3.77;;;;;;;18.12;100.00;156019.88;5030322;28;20427;-79
2023/07/30 02:51:53;;;;;;;5.23;3.87;;;;;;;18.11;100.00;156017.25;5030388;28;20529;-79
2023/07/30 02:54:39;;;;;;;3.57;3.17;;;;;;;18.12;100.00;156019.88;5022296;28;20558;-79
2023/07/30 02:57:24;;;;;;;5.20;4.00;;;;;;;18.12;100.00;156019.88;5010619;28;20448;-79
2023/07/30 03:00:33;;;;;;;4.60;3.40;;;;;;;18.09;100.00;156010.72;5011167;28;20444;-79
2023/07/30 03:03:19;;;;;;;3.60;3.30;;;;;;;18.08;100.00;156008.16;5012937;28;20834;-78
2023/07/30 03:06:06;;;;;;;3.80;3.50;;;;;;;18.06;100.00;156004.22;5005270;28;20491;-78
2023/07/30 03:08:51;;;;;;;3.67;3.37;;;;;;;18.06;100.00;156004.22;5009147;28;20440;-79
2023/07/30 03:11:37;;;;;;;3.93;3.60;;;;;;;18.05;100.00;156000.34;5022784;28;20630;-78
2023/07/30 03:14:22;;;;;;;3.67;3.37;;;;;;;18.03;100.00;155995.16;5029060;28;20419;-78
2023/07/30 03:17:08;;;;;;;4.37;3.97;;;;;;;18.01;100.00;155991.22;5011643;28;20966;-78
2023/07/30 03:19:54;;;;;;;3.80;3.40;;;;;;;17.96;100.00;155976.88;5004681;28;20559;-78
2023/07/30 03:22:39;;;;;;;3.97;3.57;;;;;;;17.92;100.00;155966.50;5009945;28;20711;-79
2023/07/30 03:25:25;;;;;;;4.30;4.00;;;;;;;17.91;100.00;155963.88;5013895;28;20443;-80
2023/07/30 03:28:10;;;;;;;3.90;3.43;;;;;;;17.92;100.00;155967.78;5007094;28;20599;-79
2023/07/30 03:30:55;;;;;;;3.77;3.47;;;;;;;17.92;100.00;155967.78;5018637;28;21015;-79
2023/07/30 03:33:43;;;;;;;4.13;3.73;;;;;;;17.91;100.00;155965.16;5021737;28;20941;-80
2023/07/30 03:36:29;;;;;;;5.17;4.10;;;;;;;17.91;100.00;155963.88;5017575;28;20455;-80
2023/07/30 03:39:15;;;;;;;3.83;3.43;;;;;;;17.88;100.00;155957.34;5011777;28;20935;-79
2023/07/30 03:42:00;;;;;;;5.23;4.03;;;;;;;17.87;100.00;155953.47;5028512;28;20455;-80
2023/07/30 03:44:46;;;;;;;5.10;4.70;;;;;;;17.87;100.00;155954.72;5008622;28;20832;-80
2023/07/30 03:47:31;;;;;;;4.00;3.60;;;;;;;17.87;100.00;155954.72;5005129;28;20958;-79
2023/07/30 03:50:16;;;;;;;4.00;3.60;;;;;;;17.88;100.00;155957.34;5007422;28;20824;-81
2023/07/30 03:53:04;;;;;;;4.30;3.90;;;;;;;17.89;100.00;155959.97;5008194;28;20428;-80
2023/07/30 03:55:50;;;;;;;4.30;3.90;;;;;;;17.89;100.00;155958.66;5004904;28;20468;-78
2023/07/30 03:58:36;;;;;;;3.73;3.40;;;;;;;17.88;100.00;155957.34;5008195;28;20451;-80
2023/07/30 04:01:21;;;;;;;4.03;3.60;;;;;;;17.87;100.00;155954.72;5020285;28;20580;-79
2023/07/30 04:04:06;;;;;;;5.73;4.07;;;;;;;17.89;100.00;155959.97;5006424;28;21230;-80
2023/07/30 04:06:52;;;;;;;4.90;4.40;;;;;;;17.89;100.00;155959.97;5005139;28;20513;-80
2023/07/30 04:09:38;;;;;;;4.53;4.03;;;;;;;17.88;100.00;155957.34;5005434;28;20496;-80
2023/07/30 04:12:24;;;;;;;4.77;3.37;;;;;;;17.90;100.00;155962.56;5008768;28;20946;-79
2023/07/30 04:15:09;;;;;;;4.00;3.57;;;;;;;17.93;100.00;155969.06;5009371;28;20412;-79
2023/07/30 04:17:55;;;;;;;3.73;3.30;;;;;;;17.93;100.00;155969.06;5009342;28;20440;-79
2023/07/30 04:20:40;;;;;;;5.47;4.63;;;;;;;17.94;100.00;155971.69;5006168;28;20552;-79
2023/07/30 04:23:27;;;;;;;4.67;4.20;;;;;;;17.93;100.00;155969.06;5021539;28;20464;-79
2023/07/30 04:26:14;;;;;;;4.67;3.50;;;;;;;17.91;100.00;155963.88;5009296;28;20974;-79
2023/07/30 04:28:59;;;;;;;3.83;3.53;;;;;;;17.90;100.00;155962.56;5006486;28;20448;-79
2023/07/30 04:31:44;;;;;;;4.00;3.47;;;;;;;17.89;100.00;155958.66;5007899;28;20471;-79
2023/07/30 04:34:29;;;;;;;4.60;4.00;;;;;;;17.89;100.00;155958.66;5009294;28;20496;-79
2023/07/30 04:37:14;;;;;;;5.13;3.70;;;;;;;17.88;100.00;155957.34;5017731;28;20831;-79
2023/07/30 04:40:00;;;;;;;4.97;4.47;;;;;;;17.90;100.00;155962.56;5022061;28;20971;-79
2023/07/30 04:42:50;;;;;;;4.87;4.37;;;;;;;17.88;100.00;155957.34;5006891;28;21036;-79
2023/07/30 04:45:35;;;;;;;4.47;4.03;;;;;;;17.89;100.00;155958.66;5005903;28;21196;-79
2023/07/30 04:48:21;;;;;;;5.07;4.03;;;;;;;17.87;100.00;155954.72;5006137;28;21392;-79
2023/07/30 04:51:06;;;;;;;4.37;3.77;;;;;;;17.86;100.00;155952.16;5021290;28;20462;-79
2023/07/30 04:53:51;;;;;;;3.47;3.17;;;;;;;17.86;100.00;155952.16;5010857;28;20432;-79
2023/07/30 04:56:37;;;;;;;4.00;3.60;;;;;;;17.86;100.00;155950.84;5006589;28;20459;-79
2023/07/30 04:59:23;;;;;;;4.13;3.80;;;;;;;17.84;100.00;155946.97;5022028;28;20467;-79
2023/07/30 05:02:08;;;;;;;4.90;4.20;;;;;;;17.87;100.00;155953.47;5005180;28;20464;-79
2023/07/30 05:04:54;;;;;;;4.40;3.93;;;;;;;17.89;100.00;155959.97;5006428;28;20502;-79
2023/07/30 05:07:39;;;;;;;4.80;4.40;;;;;;;17.90;100.00;155962.56;5008159;28;20572;-79
2023/07/30 05:10:31;;;;;;;3.73;3.40;;;;;;;17.93;100.00;155970.38;5005799;28;20494;-79
2023/07/30 05:13:17;;;;;;;3.53;3.23;;;;;;;17.95;100.00;155975.56;5020026;28;20495;-78
2023/07/30 05:16:04;;;;;;;3.87;3.47;;;;;;;17.94;100.00;155973.00;5006789;28;20464;-79
2023/07/30 05:18:49;;;;;;;4.93;4.40;;;;;;;17.94;100.00;155971.69;5004328;28;20455;-79
2023/07/30 05:21:35;;;;;;;4.40;4.00;;;;;;;17.93;100.00;155970.38;5019453;28;20436;-78
2023/07/30 05:24:20;;;;;;;5.37;4.17;;;;;;;17.94;100.00;155973.00;5008307;28;20463;-79
2023/07/30 05:27:06;;;;;;;4.97;4.47;;;;;;;17.95;100.00;155975.56;5004774;28;20451;-78
2023/07/30 05:29:51;;;;;;;5.50;4.30;;;;;;;17.94;100.00;155973.00;5007571;28;20431;-78
2023/07/30 05:32:38;;;;;;;8.27;4.57;;;;;;;17.92;100.00;155966.50;5006865;28;20502;-78
2023/07/30 05:35:23;;;;;;;4.90;4.50;;;;;;;17.91;100.00;155965.16;5006305;28;20448;-89
2023/07/30 05:38:09;;;;;;;6.53;4.43;;;;;;;17.93;100.00;155970.38;5007203;28;20525;-89
2023/07/30 05:40:54;;;;;;;5.33;4.60;;;;;;;17.94;100.00;155973.00;5010615;28;20440;-89
2023/07/30 05:43:39;;;;;;;4.83;4.20;;;;;;;17.96;100.00;155978.19;5011077;28;20929;-89
2023/07/30 05:46:24;;;;;;;4.40;4.07;;;;;;;17.99;100.00;155986.00;5007912;28;20449;-90
2023/07/30 05:49:11;;;;;;;5.20;4.70;;;;;;;18.01;100.00;155989.88;5010761;28;20440;-90
2023/07/30 05:51:56;;;;;;;4.57;4.17;;;;;;;18.01;100.00;155991.22;5009814;28;20483;-90
2023/07/30 05:54:41;;;;;;;5.03;4.30;;;;;;;18.04;100.00;155997.72;5022189;28;20558;-90
2023/07/30 05:57:27;;;;;;;5.17;4.53;;;;;;;18.07;100.00;156006.84;5039025;28;20505;-90
2023/07/30 06:00:13;;;;;;;4.60;4.20;;;;;;;18.07;100.00;156006.84;5038497;28;20784;-89
2023/07/30 06:02:58;;;;;;;4.53;4.13;;;;;;;18.08;100.00;156009.41;5038239;28;20439;-89
2023/07/30 06:05:44;;;;;;;5.40;3.77;;;;;;;18.12;100.00;156019.88;5042681;28;20454;-89
2023/07/30 06:08:30;;;;;;;3.70;3.40;;;;;;;18.19;100.00;156038.09;5046298;28;20455;-89
2023/07/30 06:11:15;;;;;;;4.30;3.90;;;;;;;18.33;100.00;156071.94;5040492;28;20977;-90
2023/07/30 06:14:00;;;;;;;5.17;4.70;;;;;;;18.47;100.00;156108.44;5042069;28;20543;-91
2023/07/30 06:16:46;;;;;;;4.27;3.63;;;;;;;18.57;100.00;156134.53;5045502;28;20446;-91
2023/07/30 06:19:31;;;;;;;4.73;3.67;;;;;;;18.59;100.00;156139.72;5034793;28;20451;-92
2023/07/30 06:22:18;;;;;;;4.40;3.83;;;;;;;18.58;100.00;156137.13;5009959;28;20489;-91
2023/07/30 06:25:04;;;;;;;7.50;3.10;;;;;;;18.60;100.00;156143.66;5023402;28;20447;-90
2023/07/30 06:27:49;;;;;;;3.70;3.40;;;;;;;18.63;100.00;156150.16;5036551;28;20458;-91
2023/07/30 06:30:36;;;;;;;4.10;3.70;;;;;;;18.67;100.00;156160.56;5039080;28;21262;-91
2023/07/30 06:33:21;;;;;;;5.10;3.90;;;;;;;18.66;100.00;156158.00;5037572;28;20454;-90
2023/07/30 06:36:07;;;;;;;2.53;2.30;;;;;;;18.72;100.00;156173.59;5036093;28;20432;-90
2023/07/30 06:38:53;;;;;;;3.07;2.77;;;;;;;18.76;100.00;156184.03;5038079;28;21266;-91
2023/07/30 06:41:39;;;;;;;4.23;3.30;;;;;;;18.89;100.00;156216.59;5038878;28;21040;-92
2023/07/30 06:44:25;;;;;;;2.87;2.40;;;;;;;19.07;100.00;156263.50;5037363;28;20459;-92
2023/07/30 06:47:10;;;;;;;2.90;2.50;;;;;;;19.10;100.00;156272.63;5024251;28;20451;-92
2023/07/30 06:49:58;;;;;;;5.03;2.63;;;;;;;19.19;100.00;156296.13;5034782;28;21189;-90
2023/07/30 06:52:43;;;;;;;2.67;2.47;;;;;;;19.28;100.00;156318.22;5035673;28;20463;-91
2023/07/30 06:55:30;;;;;;;3.00;2.53;;;;;;;19.34;100.00;156335.19;5011501;28;20494;-90
2023/07/30 06:58:16;;;;;;;3.80;2.37;;;;;;;19.31;100.00;156326.06;5008124;28;20452;-91
2023/07/30 07:01:01;;;;;;;3.10;2.10;;;;;;;19.28;100.00;156319.53;5009296;28;20538;-93
2023/07/30 07:03:46;;;;;;;2.60;2.40;;;;;;;19.28;100.00;156319.53;5007533;28;20463;-91
2023/07/30 07:06:31;;;;;;;6.10;2.40;;;;;;;19.24;100.00;156309.13;5008449;28;20440;-92
2023/07/30 07:09:17;;;;;;;2.90;2.30;;;;;;;19.17;100.00;156290.88;5022495;28;20456;-92
2023/07/30 07:12:05;;;;;;;2.47;2.27;;;;;;;19.17;100.00;156289.53;5008068;28;20992;-91
2023/07/30 07:14:50;;;;;;;3.00;2.07;;;;;;;19.13;100.00;156280.47;5010643;28;20522;-91
2023/07/30 07:17:38;;;;;;;2.30;2.10;;;;;;;19.13;100.00;156280.47;5011045;28;20455;-91
2023/07/30 07:20:23;;;;;;;2.70;2.07;;;;;;;19.12;100.00;156276.53;5008608;28;20564;-91
2023/07/30 07:23:08;;;;;;;3.93;2.43;;;;;;;19.14;100.00;156281.78;5007517;28;20455;-91
2023/07/30 07:25:54;;;;;;;2.40;2.03;;;;;;;19.13;100.00;156280.47;5006252;28;20982;-90
2023/07/30 07:28:41;;;;;;;2.53;2.17;;;;;;;19.13;100.00;156280.47;5009031;28;20444;-91
2023/07/30 07:31:27;;;;;;;3.40;2.33;;;;;;;19.16;100.00;156288.28;5008063;28;20506;-90
2023/07/30 07:34:12;;;;;;;1.90;1.60;;;;;;;19.17;100.00;156290.88;5008381;28;20690;-90
2023/07/30 07:36:57;;;;;;;3.00;2.20;;;;;;;19.21;100.00;156301.31;5008739;28;20586;-91
2023/07/30 07:39:43;;;;;;;2.00;1.80;;;;;;;19.21;100.00;156300.00;5008686;28;20459;-93
2023/07/30 07:42:28;;;;;;;2.50;1.77;;;;;;;19.23;100.00;156306.53;5013076;28;20452;-94
2023/07/30 07:45:14;;;;;;;2.50;1.90;;;;;;;19.20;100.00;156297.38;5007913;28;20796;-90
2023/07/30 07:48:00;;;;;;;2.27;1.80;;;;;;;19.15;100.00;156285.66;5021156;28;20802;-91
2023/07/30 07:50:46;;;;;;;2.30;2.03;;;;;;;19.18;100.00;156292.19;5007316;28;20594;-92
2023/07/30 07:53:31;;;;;;;1.97;1.60;;;;;;;19.15;100.00;156284.34;5022425;28;20452;-93
2023/07/30 07:56:16;;;;;;;2.13;1.67;;;;;;;19.12;100.00;156276.53;5012224;28;20448;-92
2023/07/30 07:59:01;;;;;;;3.50;1.67;;;;;;;19.16;100.00;156286.97;5007802;28;20440;-93
2023/07/30 08:01:48;;;;;;;2.87;1.80;;;;;;;19.15;100.00;156285.66;5011034;28;20607;-93
2023/07/30 08:04:33;;;;;;;2.47;1.47;;;;;;;19.18;100.00;156293.50;5008526;28;20915;-93
2023/07/30 08:07:18;;;;;;;3.00;1.80;;;;;;;19.28;100.00;156319.53;5022352;28;20471;-92
2023/07/30 08:10:04;;;;;;;2.07;1.73;;;;;;;19.31;100.00;156327.38;5006915;28;20439;-93
2023/07/30 08:12:48;;;;;;;2.00;1.60;;;;;;;19.35;100.00;156337.78;5008536;28;20480;-92
2023/07/30 08:15:34;;;;;;;3.27;1.97;;;;;;;19.42;100.00;156356.09;5008104;28;20987;-92
2023/07/30 08:18:20;;;;;;;4.23;1.73;;;;;;;19.47;100.00;156367.81;5020832;28;20452;-91
2023/07/30 08:21:06;;;;;;;1.80;1.60;;;;;;;19.48;100.00;156369.13;5005241;28;20511;-91
2023/07/30 08:23:51;;;;;;;3.90;1.70;;;;;;;19.53;100.00;156382.16;5009110;28;20592;-91
2023/07/30 08:26:36;;;;;;;1.83;1.60;;;;;;;19.56;100.00;156391.31;5007304;28;20439;-91
2023/07/30 08:29:22;;;;;;;3.10;1.77;;;;;;;19.61;100.00;156403.03;5007721;28;20520;-92
2023/07/30 08:32:07;;;;;;;2.37;1.73;;;;;;;19.66;100.00;156416.06;5008681;28;20475;-93
2023/07/30 08:34:54;;;;;;;2.30;1.70;;;;;;;19.78;100.00;156447.31;5010469;28;20441;-94
2023/07/30 08:37:39;;;;;;;2.07;1.70;;;;;;;19.98;100.00;156500.81;5012493;28;20452;-95
2023/07/30 08:40:25;;;;;;;2.10;1.90;;;;;;;20.10;100.00;156530.78;5012549;28;20429;-95
2023/07/30 08:43:11;;;;;;;2.10;1.90;;;;;;;20.20;100.00;156556.84;5021499;28;20468;-95
2023/07/30 08:45:56;;;;;;;1.77;1.43;;;;;;;20.28;100.00;156576.50;5012624;28;20408;-95
2023/07/30 08:48:41;;;;;;;2.00;1.80;;;;;;;20.31;100.00;156585.63;4992798;28;20432;-95
2023/07/30 08:51:28;;;;;;;1.90;1.70;;;;;;;20.33;100.00;156590.81;4992432;28;20452;-95
2023/07/30 08:54:14;;;;;;;2.30;2.10;;;;;;;20.48;100.00;156629.97;5021161;28;20486;-94
2023/07/30 08:57:00;;;;;;;2.20;1.83;;;;;;;20.56;100.00;156650.84;5030647;28;20548;-94
2023/07/30 08:59:50;;;;;;;2.27;1.90;;;;;;;20.68;100.00;156679.56;5017298;28;20404;-95
2023/07/30 09:02:49;;;;;;;3.07;2.20;;;;;;;20.76;100.00;156700.44;5030941;28;20466;-94
2023/07/30 09:05:35;;;;;;;2.47;2.00;;;;;;;20.85;100.00;156723.91;5035085;28;20807;-94
2023/07/30 09:08:22;;;;;;;2.30;2.10;;;;;;;20.94;100.00;156748.69;5030733;28;20435;-94
2023/07/30 09:11:08;;;;;;;2.60;2.20;;;;;;;21.01;100.00;156765.66;5030893;28;20831;-95
2023/07/30 09:13:55;;;;;;;2.00;1.80;;;;;;;21.12;100.00;156794.44;5035032;28;20555;-95
2023/07/30 09:16:41;;;;;;;2.27;1.93;;;;;;;21.26;100.00;156829.66;5035759;28;20493;-96
2023/07/30 09:19:27;;;;;;;4.40;2.70;;;;;;;21.41;100.00;156870.13;5043877;28;20403;-96
2023/07/30 09:22:13;;;;;;;2.20;1.90;;;;;;;21.39;100.00;156864.91;5057509;28;20414;-94
2023/07/30 09:25:02;;;;;;;2.37;2.00;;;;;;;21.29;100.00;156838.78;5061705;28;20446;-93
2023/07/30 09:27:49;;;;;;;2.60;2.07;;;;;;;21.20;100.00;156816.63;5050043;28;20458;-93
2023/07/30 09:30:34;;;;;;;2.50;2.30;;;;;;;21.10;100.00;156790.50;5041001;28;20453;-92
2023/07/30 09:33:20;;;;;;;4.80;2.10;;;;;;;21.00;100.00;156763.03;5034836;28;20589;-77
2023/07/30 09:36:05;;;;;;;2.40;2.20;;;;;;;20.89;100.00;156735.63;5029680;28;20811;-77
2023/07/30 09:38:50;;;;;;;2.80;2.30;;;;;;;20.78;100.00;156705.66;5030792;28;20451;-77
2023/07/30 09:41:37;;;;;;;2.87;2.10;;;;;;;20.67;100.00;156676.94;5029353;28;20435;-77
2023/07/30 09:44:22;;;;;;;2.50;1.87;;;;;;;20.51;100.00;156637.81;5029209;28;20509;-77
2023/07/30 09:47:10;;;;;;;2.73;2.53;;;;;;;20.55;100.00;156646.91;5031316;28;20538;-77
2023/07/30 09:49:55;;;;;;;2.47;2.27;;;;;;;20.56;100.00;156650.84;5026646;28;20530;-77
2023/07/30 09:52:41;;;;;;;2.60;2.40;;;;;;;20.48;100.00;156629.97;5034068;28;20657;-77
2023/07/30 09:55:26;;;;;;;2.67;2.47;;;;;;;20.49;100.00;156632.56;5009952;28;20845;-77
2023/07/30 09:58:13;;;;;;;2.83;2.17;;;;;;;20.48;100.00;156629.97;5008410;28;20456;-77
2023/07/30 10:01:00;;;;;;;2.40;2.10;;;;;;;20.49;100.00;156631.28;5006455;28;20443;-77
2023/07/30 10:03:45;;;;;;;2.50;2.30;;;;;;;20.57;100.00;156653.44;5008946;28;20965;-77
2023/07/30 10:06:31;;;;;;;3.13;2.20;;;;;;;20.52;100.00;156640.41;5007859;28;20440;-77
2023/07/30 10:09:18;;;;;;;3.50;2.57;;;;;;;20.58;100.00;156654.75;5010042;28;20464;-77
2023/07/30 10:12:05;;;;;;;2.50;2.30;;;;;;;20.56;100.00;156650.84;5008142;28;20487;-77
2023/07/30 10:14:52;;;;;;;2.70;2.50;;;;;;;20.55;100.00;156648.22;5008524;28;20475;-77
2023/07/30 10:17:37;;;;;;;3.13;2.60;;;;;;;20.60;100.00;156659.94;5008603;28;21077;-77
2023/07/30 10:20:24;;;;;;;3.00;2.23;;;;;;;20.70;100.00;156684.78;5008237;28;20528;-77
2023/07/30 10:23:09;;;;;;;3.20;2.60;;;;;;;20.81;100.00;156714.75;5008050;28;20564;-77
2023/07/30 10:25:56;;;;;;;3.03;2.57;;;;;;;20.87;100.00;156729.09;5020219;28;20544;-77
2023/07/30 10:28:43;;;;;;;2.70;2.40;;;;;;;20.90;100.00;156738.25;5009146;28;20456;-77
2023/07/30 10:31:39;;;;;;;4.70;2.30;;;;;;;20.98;100.00;156757.81;5007066;28;20468;-77
2023/07/30 10:34:27;;;;;;;2.33;2.13;;;;;;;21.04;100.00;156773.50;5008993;28;20456;-77
2023/07/30 10:37:18;;;;;;;3.00;2.50;;;;;;;21.05;100.00;156776.06;5008323;28;20491;-77
2023/07/30 10:40:17;;;;;;;2.50;2.03;;;;;;;21.11;99.12;156793.13;5008765;28;20444;-76
2023/07/30 10:43:03;;;;;;;2.57;2.30;;;;;;;21.21;99.66;156819.22;5008176;28;20595;-76
2023/07/30 10:45:51;;;;;;;3.00;2.60;;;;;;;21.39;96.70;156864.91;5007588;28;20503;-76
2023/07/30 10:48:39;;;;;;;2.87;2.57;;;;;;;21.49;99.81;156891.03;5008340;28;21077;-76
2023/07/30 10:51:24;;;;;;;2.20;2.00;;;;;;;21.61;99.64;156921.00;5007986;28;20436;-76
2023/07/30 10:54:10;;;;;;;3.30;2.50;;;;;;;21.62;91.81;156923.63;5015373;28;20863;-76
2023/07/30 10:56:55;;;;;;;3.00;2.23;;;;;;;21.79;95.90;156969.31;5036735;28;20459;-76
2023/07/30 10:59:42;;;;;;;2.73;2.23;;;;;;;21.77;92.60;156964.09;5022595;28;20450;-76
2023/07/30 11:02:29;;;;;;;3.20;2.50;;;;;;;21.80;93.40;156971.94;5035029;28;20455;-76
2023/07/30 11:05:16;;;;;;;2.70;1.90;;;;;;;21.82;93.15;156977.16;5034684;28;21049;-76
2023/07/30 11:08:01;;;;;;;2.63;2.10;;;;;;;21.76;93.69;156961.47;5038493;28;20875;-76
2023/07/30 11:10:47;;;;;;;3.03;2.63;;;;;;;21.73;94.87;156953.69;5021507;28;20984;-76
2023/07/30 11:13:36;;;;;;;3.00;2.60;;;;;;;21.76;93.22;156961.47;5033912;28;20474;-76
2023/07/30 11:16:22;;;;;;;2.87;2.40;;;;;;;21.74;89.98;156956.25;5033992;28;20443;-75
2023/07/30 11:19:08;;;;;;;2.50;2.00;;;;;;;21.75;91.17;156958.91;5036439;28;20482;-75
2023/07/30 11:21:56;;;;;;;3.07;2.60;;;;;;;21.71;93.22;156947.16;5033570;28;20812;-75
2023/07/30 11:24:41;;;;;;;3.73;2.70;;;;;;;21.69;95.57;156943.22;5035578;28;21000;-75
2023/07/30 11:27:26;;;;;;;6.70;3.00;;;;;;;21.67;95.60;156938.00;5035004;28;20467;-77
2023/07/30 11:30:12;;;;;;;3.00;2.60;;;;;;;21.56;92.54;156909.28;5036712;28;20446;-77
2023/07/30 11:32:57;;;;;;;3.37;2.70;;;;;;;21.49;89.85;156891.03;5036203;28;20482;-77
2023/07/30 11:35:42;;;;;;;3.93;2.10;;;;;;;21.48;89.81;156888.38;5035625;28;20450;-77
2023/07/30 11:38:31;;;;;;;3.00;2.70;;;;;;;21.42;87.09;156872.72;5037608;28;20451;-75
2023/07/30 11:41:16;;;;;;;3.07;2.67;;;;;;;21.58;90.69;156913.16;5036526;28;20455;-75
2023/07/30 11:44:02;;;;;;;3.07;2.77;;;;;;;21.60;87.73;156918.44;5037238;28;20529;-72
2023/07/30 11:46:54;;;;;;;7.33;3.00;;;;;;;21.72;88.93;156949.75;5019238;28;20455;-75
2023/07/30 11:49:39;;;;;;;5.37;2.20;;;;;;;21.71;84.99;156947.16;5034718;28;20725;-75
2023/07/30 11:52:25;;;;;;;3.10;2.20;;;;;;;21.75;89.62;156958.91;5035719;28;20462;-75
2023/07/30 11:55:11;;;;;;;2.87;2.57;;;;;;;21.75;88.66;156958.91;5029989;28;20466;-76
2023/07/30 11:57:58;;;;;;;3.27;2.70;;;;;;;21.74;92.22;156954.94;5029977;28;20595;-75
2023/07/30 12:00:44;;;;;;;3.23;2.70;;;;;;;21.70;95.91;156945.84;5027391;28;20440;-75
2023/07/30 12:03:29;;;;;;;2.87;2.43;;;;;;;21.62;89.27;156924.97;5025834;28;20451;-76
2023/07/30 12:06:15;;;;;;;2.70;2.47;;;;;;;21.68;88.76;156940.59;5027532;28;20897;-76
2023/07/30 12:09:01;;;;;;;3.13;2.83;;;;;;;21.74;87.58;156956.25;5029028;28;20497;-89
2023/07/30 12:11:50;;;;;;;3.17;2.27;;;;;;;21.74;88.79;156954.94;5040060;28;20900;-89
2023/07/30 12:14:45;;;;;;;4.67;2.90;;;;;;;21.72;87.43;156949.75;5038809;28;20538;-89
2023/07/30 12:17:30;;;;;;;2.90;2.57;;;;;;;21.67;87.75;156938.00;5041136;28;20501;-89
2023/07/30 12:20:15;;;;;;;8.23;2.70;;;;;;;21.74;87.38;156954.94;5043024;28;20446;-89
2023/07/30 12:23:02;;;;;;;3.40;2.83;;;;;;;21.78;84.06;156965.41;5039812;28;20475;-89
2023/07/30 12:25:49;;;;;;;3.70;2.50;;;;;;;21.86;84.09;156986.38;5031195;28;20806;-75
2023/07/30 12:28:35;;;;;;;3.60;3.07;;;;;;;21.94;83.40;157005.94;5026530;28;20447;-75
2023/07/30 12:31:20;;;;;;;3.23;2.80;;;;;;;21.95;83.89;157009.84;5026878;28;20443;-76
2023/07/30 12:34:05;;;;;;;2.70;2.50;;;;;;;21.99;87.22;157020.31;5025918;28;20471;-76
2023/07/30 12:36:51;;;;;;;3.20;2.90;;;;;;;22.04;84.80;157032.03;5030958;28;20459;-76
2023/07/30 12:39:36;;;;;;;3.20;2.90;;;;;;;22.02;81.55;157026.84;5027271;28;20602;-76
2023/07/30 12:42:21;;;;;;;6.73;3.03;;;;;;;22.08;86.20;157042.53;5025380;28;20446;-76
2023/07/30 12:45:09;;;;;;;2.60;2.30;;;;;;;22.08;85.70;157042.53;5027375;28;20980;-77